sensor_id;sensor_type;location;lat;lon;timestamp;P1;durP1;ratioP1;P2;durP2;ratioP2
68300;SDS011;55146;47.468;18.806;2022-09-13T00:01:30;3.00;;;1.90;;
68300;SDS011;55146;47.468;18.806;2022-09-13T00:03:55;2.80;;;1.63;;
68300;SDS011;55146;47.468;18.806;2022-09-13T00:06:21;2.60;;;1.23;;
68300;SDS011;55146;47.468;18.806;2022-09-13T00:08:47;2.95;;;1.67;;
68300;SDS011;55146;47.468;18.806;2022-09-13T00:11:14;2.83;;;1.57;;
68300;SDS011;55146;47.468;18.806;2022-09-13T00:13:50;2.53;;;1.10;;
68300;SDS011;55146;47.468;18.806;2022-09-13T00:16:18;2.90;;;1.62;;
68300;SDS011;55146;47.468;18.806;2022-09-13T00:18:44;2.65;;;1.52;;
68300;SDS011;55146;47.468;18.806;2022-09-13T00:21:11;2.50;;;1.00;;
68300;SDS011;55146;47.468;18.806;2022-09-13T00:23:38;2.35;;;1.17;;
68300;SDS011;55146;47.468;18.806;2022-09-13T00:26:08;2.60;;;1.35;;
68300;SDS011;55146;47.468;18.806;2022-09-13T00:28:35;3.03;;;1.67;;
68300;SDS011;55146;47.468;18.806;2022-09-13T00:31:02;2.60;;;1.33;;
68300;SDS011;55146;47.468;18.806;2022-09-13T00:33:29;2.80;;;1.37;;
68300;SDS011;55146;47.468;18.806;2022-09-13T00:35:55;2.40;;;1.00;;
68300;SDS011;55146;47.468;18.806;2022-09-13T00:38:20;2.50;;;1.05;;
68300;SDS011;55146;47.468;18.806;2022-09-13T00:40:46;2.17;;;0.83;;
68300;SDS011;55146;47.468;18.806;2022-09-13T00:43:14;2.53;;;1.10;;
68300;SDS011;55146;47.468;18.806;2022-09-13T00:45:44;3.05;;;2.17;;
68300;SDS011;55146;47.468;18.806;2022-09-13T00:48:30;2.60;;;1.05;;
68300;SDS011;55146;47.468;18.806;2022-09-13T00:50:58;2.95;;;1.50;;
68300;SDS011;55146;47.468;18.806;2022-09-13T00:53:28;2.40;;;1.00;;
68300;SDS011;55146;47.468;18.806;2022-09-13T00:55:57;2.65;;;1.23;;
68300;SDS011;55146;47.468;18.806;2022-09-13T00:58:34;2.60;;;1.40;;
68300;SDS011;55146;47.468;18.806;2022-09-13T01:01:03;2.92;;;1.83;;
68300;SDS011;55146;47.468;18.806;2022-09-13T01:03:32;2.50;;;1.15;;
68300;SDS011;55146;47.468;18.806;2022-09-13T01:06:01;2.90;;;1.87;;
68300;SDS011;55146;47.468;18.806;2022-09-13T01:08:49;2.80;;;1.52;;
68300;SDS011;55146;47.468;18.806;2022-09-13T01:11:41;2.40;;;1.30;;
68300;SDS011;55146;47.468;18.806;2022-09-13T01:14:09;2.65;;;1.52;;
68300;SDS011;55146;47.468;18.806;2022-09-13T01:16:35;4.43;;;1.60;;
68300;SDS011;55146;47.468;18.806;2022-09-13T01:19:00;2.80;;;1.63;;
68300;SDS011;55146;47.468;18.806;2022-09-13T01:38:30;2.85;;;1.60;;
68300;SDS011;55146;47.468;18.806;2022-09-13T01:52:51;2.28;;;0.90;;
68300;SDS011;55146;47.468;18.806;2022-09-13T01:55:34;3.42;;;1.87;;
68300;SDS011;55146;47.468;18.806;2022-09-13T01:58:11;2.60;;;1.53;;
68300;SDS011;55146;47.468;18.806;2022-09-13T02:06:20;2.55;;;1.35;;
68300;SDS011;55146;47.468;18.806;2022-09-13T02:08:56;2.58;;;1.12;;
68300;SDS011;55146;47.468;18.806;2022-09-13T02:11:25;2.70;;;1.20;;
68300;SDS011;55146;47.468;18.806;2022-09-13T02:13:54;2.47;;;1.35;;
68300;SDS011;55146;47.468;18.806;2022-09-13T02:16:38;2.87;;;1.60;;
68300;SDS011;55146;47.468;18.806;2022-09-13T02:19:16;2.60;;;1.20;;
68300;SDS011;55146;47.468;18.806;2022-09-13T02:21:46;2.75;;;1.50;;
68300;SDS011;55146;47.468;18.806;2022-09-13T02:24:17;2.80;;;1.48;;
68300;SDS011;55146;47.468;18.806;2022-09-13T02:26:45;2.70;;;1.40;;
68300;SDS011;55146;47.468;18.806;2022-09-13T02:29:15;2.33;;;1.03;;
68300;SDS011;55146;47.468;18.806;2022-09-13T02:31:48;2.87;;;1.90;;
68300;SDS011;55146;47.468;18.806;2022-09-13T02:34:41;3.17;;;2.00;;
68300;SDS011;55146;47.468;18.806;2022-09-13T02:37:08;2.65;;;1.42;;
68300;SDS011;55146;47.468;18.806;2022-09-13T02:39:36;2.50;;;1.12;;
68300;SDS011;55146;47.468;18.806;2022-09-13T02:44:51;2.42;;;1.08;;
68300;SDS011;55146;47.468;18.806;2022-09-13T02:55:11;2.43;;;1.37;;
68300;SDS011;55146;47.468;18.806;2022-09-13T02:57:49;2.30;;;0.95;;
68300;SDS011;55146;47.468;18.806;2022-09-13T03:00:19;2.70;;;1.52;;
68300;SDS011;55146;47.468;18.806;2022-09-13T03:02:45;3.70;;;1.20;;
68300;SDS011;55146;47.468;18.806;2022-09-13T03:05:12;2.50;;;1.20;;
68300;SDS011;55146;47.468;18.806;2022-09-13T03:07:38;7.23;;;5.70;;
68300;SDS011;55146;47.468;18.806;2022-09-13T03:10:06;2.97;;;1.37;;
68300;SDS011;55146;47.468;18.806;2022-09-13T03:15:21;2.00;;;0.80;;
68300;SDS011;55146;47.468;18.806;2022-09-13T03:18:13;2.45;;;1.15;;
68300;SDS011;55146;47.468;18.806;2022-09-13T03:35:41;2.78;;;1.62;;
68300;SDS011;55146;47.468;18.806;2022-09-13T03:40:46;2.62;;;1.48;;
68300;SDS011;55146;47.468;18.806;2022-09-13T03:43:32;2.23;;;0.83;;
68300;SDS011;55146;47.468;18.806;2022-09-13T03:46:07;2.70;;;1.60;;
68300;SDS011;55146;47.468;18.806;2022-09-13T03:48:36;2.80;;;1.70;;
68300;SDS011;55146;47.468;18.806;2022-09-13T03:51:04;2.80;;;1.37;;
68300;SDS011;55146;47.468;18.806;2022-09-13T03:53:31;2.60;;;1.27;;
68300;SDS011;55146;47.468;18.806;2022-09-13T03:56:00;2.87;;;1.67;;
68300;SDS011;55146;47.468;18.806;2022-09-13T03:58:25;2.40;;;1.00;;
68300;SDS011;55146;47.468;18.806;2022-09-13T04:00:50;2.70;;;1.17;;
68300;SDS011;55146;47.468;18.806;2022-09-13T04:03:18;2.45;;;1.10;;
68300;SDS011;55146;47.468;18.806;2022-09-13T04:05:44;2.70;;;1.40;;
68300;SDS011;55146;47.468;18.806;2022-09-13T04:08:10;2.67;;;1.40;;
68300;SDS011;55146;47.468;18.806;2022-09-13T04:10:35;2.70;;;1.27;;
68300;SDS011;55146;47.468;18.806;2022-09-13T04:13:01;2.70;;;1.48;;
68300;SDS011;55146;47.468;18.806;2022-09-13T04:15:27;9.47;;;6.70;;
68300;SDS011;55146;47.468;18.806;2022-09-13T04:17:55;2.40;;;1.17;;
68300;SDS011;55146;47.468;18.806;2022-09-13T04:20:20;2.80;;;1.70;;
68300;SDS011;55146;47.468;18.806;2022-09-13T04:22:52;2.93;;;1.63;;
68300;SDS011;55146;47.468;18.806;2022-09-13T04:25:19;2.62;;;1.33;;
68300;SDS011;55146;47.468;18.806;2022-09-13T04:27:46;2.80;;;1.52;;
68300;SDS011;55146;47.468;18.806;2022-09-13T04:30:11;2.40;;;0.90;;
68300;SDS011;55146;47.468;18.806;2022-09-13T04:32:37;2.50;;;1.10;;
68300;SDS011;55146;47.468;18.806;2022-09-13T04:35:02;2.47;;;1.07;;
68300;SDS011;55146;47.468;18.806;2022-09-13T04:37:28;2.60;;;1.33;;
68300;SDS011;55146;47.468;18.806;2022-09-13T04:39:53;2.70;;;1.40;;
68300;SDS011;55146;47.468;18.806;2022-09-13T04:42:18;2.83;;;1.80;;
68300;SDS011;55146;47.468;18.806;2022-09-13T04:44:44;2.87;;;1.97;;
68300;SDS011;55146;47.468;18.806;2022-09-13T04:47:09;2.73;;;1.47;;
68300;SDS011;55146;47.468;18.806;2022-09-13T04:49:34;2.90;;;1.73;;
68300;SDS011;55146;47.468;18.806;2022-09-13T04:52:00;2.40;;;0.90;;
68300;SDS011;55146;47.468;18.806;2022-09-13T04:54:25;2.90;;;1.83;;
68300;SDS011;55146;47.468;18.806;2022-09-13T04:56:51;2.90;;;1.80;;
68300;SDS011;55146;47.468;18.806;2022-09-13T04:59:16;2.80;;;1.80;;
68300;SDS011;55146;47.468;18.806;2022-09-13T05:01:42;2.70;;;1.53;;
68300;SDS011;55146;47.468;18.806;2022-09-13T05:04:08;3.65;;;1.48;;
68300;SDS011;55146;47.468;18.806;2022-09-13T05:06:34;2.72;;;1.33;;
68300;SDS011;55146;47.468;18.806;2022-09-13T05:09:00;2.57;;;1.27;;
68300;SDS011;55146;47.468;18.806;2022-09-13T05:11:26;2.45;;;1.25;;
68300;SDS011;55146;47.468;18.806;2022-09-13T05:13:54;2.62;;;1.33;;
68300;SDS011;55146;47.468;18.806;2022-09-13T05:16:22;2.30;;;1.30;;
68300;SDS011;55146;47.468;18.806;2022-09-13T05:18:49;2.80;;;1.73;;
68300;SDS011;55146;47.468;18.806;2022-09-13T05:21:15;2.63;;;1.50;;
68300;SDS011;55146;47.468;18.806;2022-09-13T05:23:41;2.85;;;1.52;;
68300;SDS011;55146;47.468;18.806;2022-09-13T05:26:06;3.00;;;1.37;;
68300;SDS011;55146;47.468;18.806;2022-09-13T05:28:33;2.83;;;1.73;;
68300;SDS011;55146;47.468;18.806;2022-09-13T05:31:03;2.70;;;1.48;;
68300;SDS011;55146;47.468;18.806;2022-09-13T05:33:34;4.43;;;1.95;;
68300;SDS011;55146;47.468;18.806;2022-09-13T05:36:02;3.20;;;1.70;;
68300;SDS011;55146;47.468;18.806;2022-09-13T05:38:29;2.30;;;0.90;;
68300;SDS011;55146;47.468;18.806;2022-09-13T05:40:56;2.80;;;1.37;;
68300;SDS011;55146;47.468;18.806;2022-09-13T05:43:23;2.55;;;1.23;;
68300;SDS011;55146;47.468;18.806;2022-09-13T05:45:49;2.70;;;1.55;;
68300;SDS011;55146;47.468;18.806;2022-09-13T05:48:15;5.17;;;3.23;;
68300;SDS011;55146;47.468;18.806;2022-09-13T05:50:40;2.50;;;1.00;;
68300;SDS011;55146;47.468;18.806;2022-09-13T05:53:06;3.43;;;1.77;;
68300;SDS011;55146;47.468;18.806;2022-09-13T05:55:31;2.60;;;1.40;;
68300;SDS011;55146;47.468;18.806;2022-09-13T05:57:57;3.20;;;1.70;;
68300;SDS011;55146;47.468;18.806;2022-09-13T06:00:22;2.60;;;1.27;;
68300;SDS011;55146;47.468;18.806;2022-09-13T06:02:48;2.60;;;1.20;;
68300;SDS011;55146;47.468;18.806;2022-09-13T06:05:13;2.50;;;1.30;;
68300;SDS011;55146;47.468;18.806;2022-09-13T06:07:39;2.50;;;1.17;;
68300;SDS011;55146;47.468;18.806;2022-09-13T06:10:08;3.25;;;2.37;;
68300;SDS011;55146;47.468;18.806;2022-09-13T06:12:35;7.30;;;1.80;;
68300;SDS011;55146;47.468;18.806;2022-09-13T06:15:00;2.80;;;1.52;;
68300;SDS011;55146;47.468;18.806;2022-09-13T06:17:26;2.60;;;1.40;;
68300;SDS011;55146;47.468;18.806;2022-09-13T06:19:51;7.83;;;2.07;;
68300;SDS011;55146;47.468;18.806;2022-09-13T06:22:16;3.50;;;2.10;;
68300;SDS011;55146;47.468;18.806;2022-09-13T06:24:42;2.45;;;1.05;;
68300;SDS011;55146;47.468;18.806;2022-09-13T06:27:07;3.00;;;1.97;;
68300;SDS011;55146;47.468;18.806;2022-09-13T06:29:34;2.50;;;1.20;;
68300;SDS011;55146;47.468;18.806;2022-09-13T06:32:00;4.30;;;1.50;;
68300;SDS011;55146;47.468;18.806;2022-09-13T06:34:26;2.72;;;1.60;;
68300;SDS011;55146;47.468;18.806;2022-09-13T06:36:52;2.85;;;1.45;;
68300;SDS011;55146;47.468;18.806;2022-09-13T06:39:17;2.70;;;1.53;;
68300;SDS011;55146;47.468;18.806;2022-09-13T06:41:42;2.93;;;1.93;;
68300;SDS011;55146;47.468;18.806;2022-09-13T06:44:08;2.70;;;1.57;;
68300;SDS011;55146;47.468;18.806;2022-09-13T06:46:33;10.33;;;2.70;;
68300;SDS011;55146;47.468;18.806;2022-09-13T06:49:00;2.72;;;1.60;;
68300;SDS011;55146;47.468;18.806;2022-09-13T06:51:27;2.45;;;1.12;;
68300;SDS011;55146;47.468;18.806;2022-09-13T06:53:54;2.83;;;1.58;;
68300;SDS011;55146;47.468;18.806;2022-09-13T06:56:24;2.57;;;1.20;;
68300;SDS011;55146;47.468;18.806;2022-09-13T06:58:53;3.72;;;2.17;;
68300;SDS011;55146;47.468;18.806;2022-09-13T07:01:21;4.05;;;1.75;;
68300;SDS011;55146;47.468;18.806;2022-09-13T07:03:50;2.90;;;1.95;;
68300;SDS011;55146;47.468;18.806;2022-09-13T07:06:18;3.35;;;1.70;;
68300;SDS011;55146;47.468;18.806;2022-09-13T07:08:45;2.67;;;1.27;;
68300;SDS011;55146;47.468;18.806;2022-09-13T07:11:11;2.80;;;1.42;;
68300;SDS011;55146;47.468;18.806;2022-09-13T07:13:39;3.20;;;1.62;;
68300;SDS011;55146;47.468;18.806;2022-09-13T07:16:05;2.60;;;1.13;;
68300;SDS011;55146;47.468;18.806;2022-09-13T07:18:32;2.60;;;1.40;;
68300;SDS011;55146;47.468;18.806;2022-09-13T07:21:02;2.50;;;1.10;;
68300;SDS011;55146;47.468;18.806;2022-09-13T07:23:30;2.78;;;1.52;;
68300;SDS011;55146;47.468;18.806;2022-09-13T07:25:56;2.70;;;1.50;;
68300;SDS011;55146;47.468;18.806;2022-09-13T07:28:26;2.40;;;0.87;;
68300;SDS011;55146;47.468;18.806;2022-09-13T07:30:54;3.08;;;1.67;;
68300;SDS011;55146;47.468;18.806;2022-09-13T07:33:19;2.87;;;1.85;;
68300;SDS011;55146;47.468;18.806;2022-09-13T07:35:45;3.00;;;1.50;;
68300;SDS011;55146;47.468;18.806;2022-09-13T07:38:10;2.57;;;1.27;;
68300;SDS011;55146;47.468;18.806;2022-09-13T07:40:35;2.60;;;1.40;;
68300;SDS011;55146;47.468;18.806;2022-09-13T07:43:01;3.17;;;1.37;;
68300;SDS011;55146;47.468;18.806;2022-09-13T07:45:26;3.17;;;2.07;;
68300;SDS011;55146;47.468;18.806;2022-09-13T07:47:52;2.47;;;1.13;;
68300;SDS011;55146;47.468;18.806;2022-09-13T07:50:18;3.65;;;1.73;;
68300;SDS011;55146;47.468;18.806;2022-09-13T07:52:43;2.43;;;1.03;;
68300;SDS011;55146;47.468;18.806;2022-09-13T07:55:09;2.53;;;1.17;;
68300;SDS011;55146;47.468;18.806;2022-09-13T07:57:34;3.50;;;2.77;;
68300;SDS011;55146;47.468;18.806;2022-09-13T07:59:59;2.83;;;1.23;;
68300;SDS011;55146;47.468;18.806;2022-09-13T08:02:25;2.77;;;1.37;;
68300;SDS011;55146;47.468;18.806;2022-09-13T08:04:51;3.12;;;1.77;;
68300;SDS011;55146;47.468;18.806;2022-09-13T08:07:16;2.60;;;1.30;;
68300;SDS011;55146;47.468;18.806;2022-09-13T08:09:42;2.53;;;1.37;;
68300;SDS011;55146;47.468;18.806;2022-09-13T08:12:07;2.77;;;1.33;;
68300;SDS011;55146;47.468;18.806;2022-09-13T08:14:32;3.97;;;3.50;;
68300;SDS011;55146;47.468;18.806;2022-09-13T08:16:58;2.47;;;0.97;;
68300;SDS011;55146;47.468;18.806;2022-09-13T08:19:23;2.80;;;1.57;;
68300;SDS011;55146;47.468;18.806;2022-09-13T08:21:49;2.40;;;1.10;;
68300;SDS011;55146;47.468;18.806;2022-09-13T08:24:15;2.90;;;1.85;;
68300;SDS011;55146;47.468;18.806;2022-09-13T08:26:42;2.53;;;1.20;;
68300;SDS011;55146;47.468;18.806;2022-09-13T08:29:09;2.95;;;1.80;;
68300;SDS011;55146;47.468;18.806;2022-09-13T08:31:36;2.80;;;1.40;;
68300;SDS011;55146;47.468;18.806;2022-09-13T08:34:01;2.83;;;1.37;;
68300;SDS011;55146;47.468;18.806;2022-09-13T08:36:27;2.30;;;1.00;;
68300;SDS011;55146;47.468;18.806;2022-09-13T08:38:58;2.47;;;1.08;;
68300;SDS011;55146;47.468;18.806;2022-09-13T08:41:47;2.42;;;0.98;;
68300;SDS011;55146;47.468;18.806;2022-09-13T08:44:22;2.60;;;1.23;;
68300;SDS011;55146;47.468;18.806;2022-09-13T08:49:42;2.50;;;1.00;;
68300;SDS011;55146;47.468;18.806;2022-09-13T08:54:36;2.53;;;1.33;;
68300;SDS011;55146;47.468;18.806;2022-09-13T08:59:35;2.90;;;1.12;;
68300;SDS011;55146;47.468;18.806;2022-09-13T09:13:07;2.50;;;1.50;;
68300;SDS011;55146;47.468;18.806;2022-09-13T09:15:52;3.00;;;1.25;;
68300;SDS011;55146;47.468;18.806;2022-09-13T09:18:22;2.80;;;1.55;;
68300;SDS011;55146;47.468;18.806;2022-09-13T09:20:50;2.78;;;1.37;;
68300;SDS011;55146;47.468;18.806;2022-09-13T09:23:20;3.80;;;1.57;;
68300;SDS011;55146;47.468;18.806;2022-09-13T09:25:46;5.45;;;3.75;;
68300;SDS011;55146;47.468;18.806;2022-09-13T09:28:13;2.47;;;1.15;;
68300;SDS011;55146;47.468;18.806;2022-09-13T09:30:59;2.53;;;1.02;;
68300;SDS011;55146;47.468;18.806;2022-09-13T09:33:41;2.45;;;1.05;;
68300;SDS011;55146;47.468;18.806;2022-09-13T09:36:24;2.53;;;1.37;;
68300;SDS011;55146;47.468;18.806;2022-09-13T09:39:02;3.58;;;1.50;;
68300;SDS011;55146;47.468;18.806;2022-09-13T09:41:32;2.30;;;0.77;;
68300;SDS011;55146;47.468;18.806;2022-09-13T09:46:42;2.60;;;1.33;;
68300;SDS011;55146;47.468;18.806;2022-09-13T09:49:16;3.87;;;1.50;;
68300;SDS011;55146;47.468;18.806;2022-09-13T09:52:06;3.00;;;1.62;;
68300;SDS011;55146;47.468;18.806;2022-09-13T09:54:35;3.25;;;1.25;;
68300;SDS011;55146;47.468;18.806;2022-09-13T09:57:02;3.20;;;1.58;;
68300;SDS011;55146;47.468;18.806;2022-09-13T09:59:28;2.60;;;1.00;;
68300;SDS011;55146;47.468;18.806;2022-09-13T10:02:00;2.70;;;1.50;;
68300;SDS011;55146;47.468;18.806;2022-09-13T10:04:42;3.53;;;1.75;;
68300;SDS011;55146;47.468;18.806;2022-09-13T10:07:32;2.90;;;1.40;;
68300;SDS011;55146;47.468;18.806;2022-09-13T10:10:19;2.70;;;1.20;;
68300;SDS011;55146;47.468;18.806;2022-09-13T10:12:49;2.58;;;1.15;;
68300;SDS011;55146;47.468;18.806;2022-09-13T10:15:18;2.60;;;1.20;;
68300;SDS011;55146;47.468;18.806;2022-09-13T10:20:33;2.70;;;1.50;;
68300;SDS011;55146;47.468;18.806;2022-09-13T10:23:09;3.10;;;1.93;;
68300;SDS011;55146;47.468;18.806;2022-09-13T10:25:36;2.30;;;1.00;;
68300;SDS011;55146;47.468;18.806;2022-09-13T10:28:03;2.47;;;1.10;;
68300;SDS011;55146;47.468;18.806;2022-09-13T10:30:36;3.35;;;1.77;;
68300;SDS011;55146;47.468;18.806;2022-09-13T10:33:06;2.97;;;1.45;;
68300;SDS011;55146;47.468;18.806;2022-09-13T10:35:49;2.53;;;1.30;;
68300;SDS011;55146;47.468;18.806;2022-09-13T10:41:31;2.97;;;1.35;;
68300;SDS011;55146;47.468;18.806;2022-09-13T10:44:03;2.50;;;1.20;;
68300;SDS011;55146;47.468;18.806;2022-09-13T10:46:32;2.85;;;1.30;;
68300;SDS011;55146;47.468;18.806;2022-09-13T10:49:00;2.30;;;0.90;;
68300;SDS011;55146;47.468;18.806;2022-09-13T10:53:51;2.50;;;0.90;;
68300;SDS011;55146;47.468;18.806;2022-09-13T10:56:32;2.65;;;1.05;;
68300;SDS011;55146;47.468;18.806;2022-09-13T10:59:14;2.53;;;1.23;;
68300;SDS011;55146;47.468;18.806;2022-09-13T11:04:32;2.60;;;1.30;;
68300;SDS011;55146;47.468;18.806;2022-09-13T11:12:42;3.62;;;2.08;;
68300;SDS011;55146;47.468;18.806;2022-09-13T11:15:29;2.40;;;1.00;;
68300;SDS011;55146;47.468;18.806;2022-09-13T11:25:55;2.80;;;1.35;;
68300;SDS011;55146;47.468;18.806;2022-09-13T11:33:44;2.60;;;1.30;;
68300;SDS011;55146;47.468;18.806;2022-09-13T11:38:59;2.45;;;1.25;;
68300;SDS011;55146;47.468;18.806;2022-09-13T11:46:46;2.47;;;1.23;;
68300;SDS011;55146;47.468;18.806;2022-09-13T11:53:10;2.80;;;0.95;;
68300;SDS011;55146;47.468;18.806;2022-09-13T11:55:27;2.97;;;1.70;;
68300;SDS011;55146;47.468;18.806;2022-09-13T11:57:58;2.55;;;1.37;;
68300;SDS011;55146;47.468;18.806;2022-09-13T12:05:50;3.53;;;1.37;;
68300;SDS011;55146;47.468;18.806;2022-09-13T12:11:35;2.42;;;1.12;;
68300;SDS011;55146;47.468;18.806;2022-09-13T12:14:06;2.60;;;1.00;;
68300;SDS011;55146;47.468;18.806;2022-09-13T12:16:39;2.30;;;0.75;;
68300;SDS011;55146;47.468;18.806;2022-09-13T12:19:18;3.00;;;1.12;;
68300;SDS011;55146;47.468;18.806;2022-09-13T12:21:47;2.95;;;1.12;;
68300;SDS011;55146;47.468;18.806;2022-09-13T12:24:17;2.50;;;1.00;;
68300;SDS011;55146;47.468;18.806;2022-09-13T12:26:53;3.00;;;1.73;;
68300;SDS011;55146;47.468;18.806;2022-09-13T12:29:35;2.60;;;1.23;;
68300;SDS011;55146;47.468;18.806;2022-09-13T12:32:08;2.67;;;1.25;;
68300;SDS011;55146;47.468;18.806;2022-09-13T12:34:45;2.40;;;0.93;;
68300;SDS011;55146;47.468;18.806;2022-09-13T12:42:44;2.85;;;1.55;;
68300;SDS011;55146;47.468;18.806;2022-09-13T13:00:18;2.30;;;0.95;;
68300;SDS011;55146;47.468;18.806;2022-09-13T13:03:04;2.35;;;1.08;;
68300;SDS011;55146;47.468;18.806;2022-09-13T13:08:17;2.65;;;1.55;;
68300;SDS011;55146;47.468;18.806;2022-09-13T13:11:07;2.55;;;1.00;;
68300;SDS011;55146;47.468;18.806;2022-09-13T13:13:38;3.08;;;2.00;;
68300;SDS011;55146;47.468;18.806;2022-09-13T13:21:53;2.92;;;1.75;;
68300;SDS011;55146;47.468;18.806;2022-09-13T13:36:47;2.30;;;0.60;;
68300;SDS011;55146;47.468;18.806;2022-09-13T13:46:47;2.73;;;1.30;;
68300;SDS011;55146;47.468;18.806;2022-09-13T13:59:54;2.72;;;1.23;;
68300;SDS011;55146;47.468;18.806;2022-09-13T14:02:45;2.67;;;1.25;;
68300;SDS011;55146;47.468;18.806;2022-09-13T14:10:47;2.47;;;1.00;;
68300;SDS011;55146;47.468;18.806;2022-09-13T14:22:06;3.20;;;0.80;;
68300;SDS011;55146;47.468;18.806;2022-09-13T14:24:44;2.20;;;0.73;;
68300;SDS011;55146;47.468;18.806;2022-09-13T14:27:16;2.70;;;1.27;;
68300;SDS011;55146;47.468;18.806;2022-09-13T14:29:43;2.60;;;1.17;;
68300;SDS011;55146;47.468;18.806;2022-09-13T14:32:11;2.65;;;1.33;;
68300;SDS011;55146;47.468;18.806;2022-09-13T14:34:49;2.50;;;0.90;;
68300;SDS011;55146;47.468;18.806;2022-09-13T14:37:17;2.30;;;0.75;;
68300;SDS011;55146;47.468;18.806;2022-09-13T14:39:52;2.75;;;1.20;;
68300;SDS011;55146;47.468;18.806;2022-09-13T14:42:22;2.50;;;1.10;;
68300;SDS011;55146;47.468;18.806;2022-09-13T14:44:48;2.70;;;1.40;;
68300;SDS011;55146;47.468;18.806;2022-09-13T14:49:46;2.33;;;0.80;;
68300;SDS011;55146;47.468;18.806;2022-09-13T14:52:27;2.75;;;1.65;;
68300;SDS011;55146;47.468;18.806;2022-09-13T14:54:56;2.30;;;0.90;;
68300;SDS011;55146;47.468;18.806;2022-09-13T14:57:30;2.40;;;1.00;;
68300;SDS011;55146;47.468;18.806;2022-09-13T15:00:00;2.45;;;0.98;;
68300;SDS011;55146;47.468;18.806;2022-09-13T15:02:36;2.20;;;0.80;;
68300;SDS011;55146;47.468;18.806;2022-09-13T15:05:05;2.90;;;1.55;;
68300;SDS011;55146;47.468;18.806;2022-09-13T15:07:37;4.00;;;1.40;;
68300;SDS011;55146;47.468;18.806;2022-09-13T15:10:26;2.95;;;1.08;;
68300;SDS011;55146;47.468;18.806;2022-09-13T15:15:34;6.43;;;1.50;;
68300;SDS011;55146;47.468;18.806;2022-09-13T15:18:03;2.87;;;1.77;;
68300;SDS011;55146;47.468;18.806;2022-09-13T15:23:19;2.22;;;0.82;;
68300;SDS011;55146;47.468;18.806;2022-09-13T15:25:53;2.42;;;1.17;;
68300;SDS011;55146;47.468;18.806;2022-09-13T15:28:22;2.28;;;0.75;;
68300;SDS011;55146;47.468;18.806;2022-09-13T15:30:53;4.57;;;1.92;;
68300;SDS011;55146;47.468;18.806;2022-09-13T15:33:22;2.27;;;0.97;;
68300;SDS011;55146;47.468;18.806;2022-09-13T15:35:51;3.20;;;1.67;;
68300;SDS011;55146;47.468;18.806;2022-09-13T15:38:22;2.70;;;1.27;;
68300;SDS011;55146;47.468;18.806;2022-09-13T15:40:57;2.30;;;0.90;;
68300;SDS011;55146;47.468;18.806;2022-09-13T15:43:26;2.40;;;1.17;;
68300;SDS011;55146;47.468;18.806;2022-09-13T15:45:52;2.40;;;0.90;;
68300;SDS011;55146;47.468;18.806;2022-09-13T15:48:38;6.72;;;3.80;;
68300;SDS011;55146;47.468;18.806;2022-09-13T15:51:07;2.40;;;0.90;;
68300;SDS011;55146;47.468;18.806;2022-09-13T15:53:34;2.45;;;1.00;;
68300;SDS011;55146;47.468;18.806;2022-09-13T15:56:01;2.70;;;1.33;;
68300;SDS011;55146;47.468;18.806;2022-09-13T15:58:28;2.58;;;1.27;;
68300;SDS011;55146;47.468;18.806;2022-09-13T16:00:54;2.85;;;1.55;;
68300;SDS011;55146;47.468;18.806;2022-09-13T16:03:19;2.50;;;1.20;;
68300;SDS011;55146;47.468;18.806;2022-09-13T16:05:44;3.13;;;2.07;;
68300;SDS011;55146;47.468;18.806;2022-09-13T16:08:10;2.73;;;1.43;;
68300;SDS011;55146;47.468;18.806;2022-09-13T16:10:36;2.42;;;1.15;;
68300;SDS011;55146;47.468;18.806;2022-09-13T16:13:02;2.63;;;1.03;;
68300;SDS011;55146;47.468;18.806;2022-09-13T16:15:27;2.62;;;1.42;;
68300;SDS011;55146;47.468;18.806;2022-09-13T16:17:52;2.87;;;1.83;;
68300;SDS011;55146;47.468;18.806;2022-09-13T16:20:18;2.50;;;1.20;;
68300;SDS011;55146;47.468;18.806;2022-09-13T16:22:44;3.15;;;1.87;;
68300;SDS011;55146;47.468;18.806;2022-09-13T16:25:13;2.80;;;1.57;;
68300;SDS011;55146;47.468;18.806;2022-09-13T16:27:42;2.80;;;1.23;;
68300;SDS011;55146;47.468;18.806;2022-09-13T16:30:12;3.25;;;2.00;;
68300;SDS011;55146;47.468;18.806;2022-09-13T16:32:37;2.10;;;0.73;;
68300;SDS011;55146;47.468;18.806;2022-09-13T16:35:03;3.43;;;1.53;;
68300;SDS011;55146;47.468;18.806;2022-09-13T16:37:28;2.90;;;1.90;;
68300;SDS011;55146;47.468;18.806;2022-09-13T16:39:56;3.07;;;1.47;;
68300;SDS011;55146;47.468;18.806;2022-09-13T16:42:22;3.20;;;1.80;;
68300;SDS011;55146;47.468;18.806;2022-09-13T16:44:48;2.97;;;1.83;;
68300;SDS011;55146;47.468;18.806;2022-09-13T16:47:14;3.72;;;2.50;;
68300;SDS011;55146;47.468;18.806;2022-09-13T16:49:39;2.83;;;1.73;;
68300;SDS011;55146;47.468;18.806;2022-09-13T16:52:04;2.73;;;1.67;;
68300;SDS011;55146;47.468;18.806;2022-09-13T16:54:30;3.27;;;2.07;;
68300;SDS011;55146;47.468;18.806;2022-09-13T16:56:58;3.03;;;1.58;;
68300;SDS011;55146;47.468;18.806;2022-09-13T16:59:24;3.60;;;1.83;;
68300;SDS011;55146;47.468;18.806;2022-09-13T17:01:50;4.03;;;3.23;;
68300;SDS011;55146;47.468;18.806;2022-09-13T17:04:16;2.40;;;1.00;;
68300;SDS011;55146;47.468;18.806;2022-09-13T17:06:42;4.30;;;2.92;;
68300;SDS011;55146;47.468;18.806;2022-09-13T17:09:07;5.53;;;1.57;;
68300;SDS011;55146;47.468;18.806;2022-09-13T17:11:35;3.03;;;1.52;;
68300;SDS011;55146;47.468;18.806;2022-09-13T17:14:04;3.58;;;2.45;;
68300;SDS011;55146;47.468;18.806;2022-09-13T17:18:58;3.80;;;2.25;;
68300;SDS011;55146;47.468;18.806;2022-09-13T17:21:25;2.83;;;1.33;;
68300;SDS011;55146;47.468;18.806;2022-09-13T17:23:52;3.92;;;2.08;;
68300;SDS011;55146;47.468;18.806;2022-09-13T17:26:17;4.53;;;2.97;;
68300;SDS011;55146;47.468;18.806;2022-09-13T17:28:43;5.30;;;2.87;;
68300;SDS011;55146;47.468;18.806;2022-09-13T17:31:08;5.03;;;3.60;;
68300;SDS011;55146;47.468;18.806;2022-09-13T17:33:33;7.73;;;4.50;;
68300;SDS011;55146;47.468;18.806;2022-09-13T17:36:03;7.53;;;5.73;;
68300;SDS011;55146;47.468;18.806;2022-09-13T17:38:32;12.23;;;8.85;;
68300;SDS011;55146;47.468;18.806;2022-09-13T17:41:03;11.27;;;8.35;;
68300;SDS011;55146;47.468;18.806;2022-09-13T17:43:29;12.50;;;7.05;;
68300;SDS011;55146;47.468;18.806;2022-09-13T17:45:54;12.57;;;7.10;;
68300;SDS011;55146;47.468;18.806;2022-09-13T17:48:20;7.18;;;5.72;;
68300;SDS011;55146;47.468;18.806;2022-09-13T17:50:46;13.30;;;9.30;;
68300;SDS011;55146;47.468;18.806;2022-09-13T17:53:11;8.77;;;4.97;;
68300;SDS011;55146;47.468;18.806;2022-09-13T17:55:44;7.07;;;6.37;;
68300;SDS011;55146;47.468;18.806;2022-09-13T17:58:11;9.90;;;5.87;;
68300;SDS011;55146;47.468;18.806;2022-09-13T18:00:36;8.30;;;4.33;;
68300;SDS011;55146;47.468;18.806;2022-09-13T18:03:01;8.00;;;4.63;;
68300;SDS011;55146;47.468;18.806;2022-09-13T18:05:27;4.53;;;3.90;;
68300;SDS011;55146;47.468;18.806;2022-09-13T18:07:52;4.93;;;3.10;;
68300;SDS011;55146;47.468;18.806;2022-09-13T18:10:17;8.53;;;3.43;;
68300;SDS011;55146;47.468;18.806;2022-09-13T18:12:42;3.90;;;2.20;;
68300;SDS011;55146;47.468;18.806;2022-09-13T18:15:08;3.70;;;2.17;;
68300;SDS011;55146;47.468;18.806;2022-09-13T18:17:34;4.07;;;2.17;;
68300;SDS011;55146;47.468;18.806;2022-09-13T18:19:59;4.03;;;2.13;;
68300;SDS011;55146;47.468;18.806;2022-09-13T18:22:24;4.85;;;3.37;;
68300;SDS011;55146;47.468;18.806;2022-09-13T18:24:50;4.03;;;2.47;;
68300;SDS011;55146;47.468;18.806;2022-09-13T18:27:15;4.33;;;2.93;;